sensor_id;sensor_type;location;lat;lon;timestamp;P1;durP1;ratioP1;P2;durP2;ratioP2
83814;SDS011;73829;53.826;-3.034;2023-12-20T00:00:24;14.10;;;3.90;;
83814;SDS011;73829;53.826;-3.034;2023-12-20T00:03:15;10.90;;;3.80;;
83814;SDS011;73829;53.826;-3.034;2023-12-20T00:05:47;13.10;;;3.60;;
83814;SDS011;73829;53.826;-3.034;2023-12-20T00:08:18;12.10;;;3.90;;
83814;SDS011;73829;53.826;-3.034;2023-12-20T00:10:49;12.20;;;3.70;;
83814;SDS011;73829;53.826;-3.034;2023-12-20T00:13:20;15.00;;;4.40;;
83814;SDS011;73829;53.826;-3.034;2023-12-20T00:15:51;12.30;;;3.40;;
83814;SDS011;73829;53.826;-3.034;2023-12-20T00:18:22;16.20;;;4.20;;
83814;SDS011;73829;53.826;-3.034;2023-12-20T00:20:53;13.40;;;3.70;;
83814;SDS011;73829;53.826;-3.034;2023-12-20T00:23:24;15.80;;;3.60;;
83814;SDS011;73829;53.826;-3.034;2023-12-20T00:25:55;10.80;;;3.60;;
83814;SDS011;73829;53.826;-3.034;2023-12-20T00:28:26;13.10;;;3.80;;
83814;SDS011;73829;53.826;-3.034;2023-12-20T00:30:57;13.30;;;4.70;;
83814;SDS011;73829;53.826;-3.034;2023-12-20T00:33:29;13.00;;;3.50;;
83814;SDS011;73829;53.826;-3.034;2023-12-20T00:36:00;13.60;;;2.90;;
83814;SDS011;73829;53.826;-3.034;2023-12-20T00:38:31;13.80;;;3.30;;
83814;SDS011;73829;53.826;-3.034;2023-12-20T00:41:02;12.30;;;3.20;;
83814;SDS011;73829;53.826;-3.034;2023-12-20T00:43:33;13.40;;;2.90;;
83814;SDS011;73829;53.826;-3.034;2023-12-20T00:46:04;15.00;;;3.60;;
83814;SDS011;73829;53.826;-3.034;2023-12-20T00:48:35;11.70;;;3.10;;
83814;SDS011;73829;53.826;-3.034;2023-12-20T00:51:06;11.50;;;3.00;;
83814;SDS011;73829;53.826;-3.034;2023-12-20T00:53:37;9.60;;;3.00;;
83814;SDS011;73829;53.826;-3.034;2023-12-20T00:56:08;13.90;;;3.20;;
83814;SDS011;73829;53.826;-3.034;2023-12-20T00:58:39;12.50;;;3.50;;
83814;SDS011;73829;53.826;-3.034;2023-12-20T01:01:10;10.90;;;3.40;;
83814;SDS011;73829;53.826;-3.034;2023-12-20T01:03:41;15.10;;;3.90;;
83814;SDS011;73829;53.826;-3.034;2023-12-20T01:06:13;14.60;;;2.80;;
83814;SDS011;73829;53.826;-3.034;2023-12-20T01:08:44;9.50;;;2.90;;
83814;SDS011;73829;53.826;-3.034;2023-12-20T01:11:15;12.20;;;3.10;;
83814;SDS011;73829;53.826;-3.034;2023-12-20T01:13:45;10.10;;;3.10;;
83814;SDS011;73829;53.826;-3.034;2023-12-20T01:16:16;11.00;;;2.90;;
83814;SDS011;73829;53.826;-3.034;2023-12-20T01:18:47;11.20;;;2.80;;
83814;SDS011;73829;53.826;-3.034;2023-12-20T01:23:48;12.80;;;3.00;;
83814;SDS011;73829;53.826;-3.034;2023-12-20T01:28:48;9.00;;;2.30;;
83814;SDS011;73829;53.826;-3.034;2023-12-20T01:31:19;8.10;;;2.50;;
83814;SDS011;73829;53.826;-3.034;2023-12-20T01:33:50;12.90;;;3.30;;
83814;SDS011;73829;53.826;-3.034;2023-12-20T01:38:50;13.90;;;2.70;;
83814;SDS011;73829;53.826;-3.034;2023-12-20T01:41:21;12.10;;;2.70;;
83814;SDS011;73829;53.826;-3.034;2023-12-20T01:46:21;10.80;;;2.10;;
83814;SDS011;73829;53.826;-3.034;2023-12-20T01:48:52;12.80;;;2.50;;
83814;SDS011;73829;53.826;-3.034;2023-12-20T01:51:23;10.50;;;2.90;;
83814;SDS011;73829;53.826;-3.034;2023-12-20T01:53:55;11.50;;;2.30;;
83814;SDS011;73829;53.826;-3.034;2023-12-20T01:56:28;9.90;;;2.50;;
83814;SDS011;73829;53.826;-3.034;2023-12-20T01:59:00;9.40;;;2.30;;
83814;SDS011;73829;53.826;-3.034;2023-12-20T02:01:32;9.50;;;2.70;;
83814;SDS011;73829;53.826;-3.034;2023-12-20T02:04:03;11.90;;;2.90;;
83814;SDS011;73829;53.826;-3.034;2023-12-20T02:06:34;12.80;;;2.40;;
83814;SDS011;73829;53.826;-3.034;2023-12-20T02:09:08;10.40;;;3.00;;
83814;SDS011;73829;53.826;-3.034;2023-12-20T02:11:39;10.60;;;2.40;;
83814;SDS011;73829;53.826;-3.034;2023-12-20T02:14:11;11.00;;;2.60;;
83814;SDS011;73829;53.826;-3.034;2023-12-20T02:16:42;11.90;;;2.40;;
83814;SDS011;73829;53.826;-3.034;2023-12-20T02:19:14;13.50;;;2.30;;
83814;SDS011;73829;53.826;-3.034;2023-12-20T02:21:46;11.70;;;2.80;;
83814;SDS011;73829;53.826;-3.034;2023-12-20T02:26:46;11.30;;;2.10;;
83814;SDS011;73829;53.826;-3.034;2023-12-20T02:29:17;11.70;;;2.10;;
83814;SDS011;73829;53.826;-3.034;2023-12-20T02:31:48;10.80;;;2.50;;
83814;SDS011;73829;53.826;-3.034;2023-12-20T02:34:19;9.40;;;2.40;;
83814;SDS011;73829;53.826;-3.034;2023-12-20T02:39:19;8.80;;;2.30;;
83814;SDS011;73829;53.826;-3.034;2023-12-20T02:41:51;10.00;;;2.60;;
83814;SDS011;73829;53.826;-3.034;2023-12-20T02:46:51;6.30;;;2.40;;
83814;SDS011;73829;53.826;-3.034;2023-12-20T02:49:22;9.80;;;2.10;;
83814;SDS011;73829;53.826;-3.034;2023-12-20T02:51:53;11.00;;;3.10;;
83814;SDS011;73829;53.826;-3.034;2023-12-20T02:54:24;12.10;;;3.00;;
83814;SDS011;73829;53.826;-3.034;2023-12-20T02:59:24;8.50;;;2.60;;
83814;SDS011;73829;53.826;-3.034;2023-12-20T03:04:24;7.70;;;1.50;;
83814;SDS011;73829;53.826;-3.034;2023-12-20T03:06:55;10.90;;;2.70;;
83814;SDS011;73829;53.826;-3.034;2023-12-20T03:11:55;8.20;;;2.20;;
83814;SDS011;73829;53.826;-3.034;2023-12-20T03:14:26;9.00;;;1.80;;
83814;SDS011;73829;53.826;-3.034;2023-12-20T03:16:57;10.40;;;2.20;;
83814;SDS011;73829;53.826;-3.034;2023-12-20T03:19:28;12.20;;;2.30;;
83814;SDS011;73829;53.826;-3.034;2023-12-20T03:21:59;12.00;;;2.50;;
83814;SDS011;73829;53.826;-3.034;2023-12-20T03:24:30;9.00;;;2.00;;
83814;SDS011;73829;53.826;-3.034;2023-12-20T03:27:01;9.10;;;2.00;;
83814;SDS011;73829;53.826;-3.034;2023-12-20T03:29:33;9.80;;;1.90;;
83814;SDS011;73829;53.826;-3.034;2023-12-20T03:32:04;11.00;;;2.10;;
83814;SDS011;73829;53.826;-3.034;2023-12-20T03:34:36;8.90;;;2.10;;
83814;SDS011;73829;53.826;-3.034;2023-12-20T03:37:07;9.30;;;2.20;;
83814;SDS011;73829;53.826;-3.034;2023-12-20T03:39:38;8.00;;;2.40;;
83814;SDS011;73829;53.826;-3.034;2023-12-20T03:42:09;6.50;;;1.50;;
83814;SDS011;73829;53.826;-3.034;2023-12-20T03:44:41;8.80;;;2.20;;
83814;SDS011;73829;53.826;-3.034;2023-12-20T03:47:12;10.40;;;2.20;;
83814;SDS011;73829;53.826;-3.034;2023-12-20T03:52:12;10.60;;;2.10;;
83814;SDS011;73829;53.826;-3.034;2023-12-20T03:54:43;9.30;;;2.00;;
83814;SDS011;73829;53.826;-3.034;2023-12-20T03:57:14;14.50;;;2.20;;
83814;SDS011;73829;53.826;-3.034;2023-12-20T03:59:45;10.30;;;2.20;;
83814;SDS011;73829;53.826;-3.034;2023-12-20T04:02:16;8.60;;;1.80;;
83814;SDS011;73829;53.826;-3.034;2023-12-20T04:04:47;9.40;;;1.70;;
83814;SDS011;73829;53.826;-3.034;2023-12-20T04:07:20;11.00;;;2.50;;
83814;SDS011;73829;53.826;-3.034;2023-12-20T04:12:21;7.50;;;1.80;;
83814;SDS011;73829;53.826;-3.034;2023-12-20T04:14:52;9.00;;;1.90;;
83814;SDS011;73829;53.826;-3.034;2023-12-20T04:19:52;9.30;;;2.10;;
83814;SDS011;73829;53.826;-3.034;2023-12-20T04:24:52;9.60;;;2.10;;
83814;SDS011;73829;53.826;-3.034;2023-12-20T04:27:23;13.30;;;2.10;;
83814;SDS011;73829;53.826;-3.034;2023-12-20T04:29:54;8.80;;;1.70;;
83814;SDS011;73829;53.826;-3.034;2023-12-20T04:34:54;9.30;;;2.10;;
83814;SDS011;73829;53.826;-3.034;2023-12-20T04:37:25;9.10;;;1.70;;
83814;SDS011;73829;53.826;-3.034;2023-12-20T04:39:56;9.90;;;2.00;;
83814;SDS011;73829;53.826;-3.034;2023-12-20T04:42:27;7.40;;;1.50;;
83814;SDS011;73829;53.826;-3.034;2023-12-20T04:47:27;6.70;;;1.80;;
83814;SDS011;73829;53.826;-3.034;2023-12-20T04:49:58;7.50;;;1.60;;
83814;SDS011;73829;53.826;-3.034;2023-12-20T04:52:30;9.40;;;1.90;;
83814;SDS011;73829;53.826;-3.034;2023-12-20T04:55:00;7.60;;;1.70;;
83814;SDS011;73829;53.826;-3.034;2023-12-20T04:57:32;7.60;;;1.70;;
83814;SDS011;73829;53.826;-3.034;2023-12-20T05:00:03;12.00;;;2.20;;
83814;SDS011;73829;53.826;-3.034;2023-12-20T05:02:36;7.90;;;1.90;;
83814;SDS011;73829;53.826;-3.034;2023-12-20T05:05:08;10.90;;;2.70;;
83814;SDS011;73829;53.826;-3.034;2023-12-20T05:07:39;7.90;;;1.50;;
83814;SDS011;73829;53.826;-3.034;2023-12-20T05:12:39;8.00;;;1.60;;
83814;SDS011;73829;53.826;-3.034;2023-12-20T05:15:10;8.40;;;1.40;;
83814;SDS011;73829;53.826;-3.034;2023-12-20T05:17:41;8.70;;;1.60;;
83814;SDS011;73829;53.826;-3.034;2023-12-20T05:20:12;8.10;;;1.60;;
83814;SDS011;73829;53.826;-3.034;2023-12-20T05:22:43;9.60;;;2.00;;
83814;SDS011;73829;53.826;-3.034;2023-12-20T05:25:15;7.80;;;2.00;;
83814;SDS011;73829;53.826;-3.034;2023-12-20T05:27:46;9.20;;;1.50;;
83814;SDS011;73829;53.826;-3.034;2023-12-20T05:30:17;8.90;;;2.20;;
83814;SDS011;73829;53.826;-3.034;2023-12-20T05:35:17;7.30;;;1.90;;
83814;SDS011;73829;53.826;-3.034;2023-12-20T05:37:50;8.00;;;1.40;;
83814;SDS011;73829;53.826;-3.034;2023-12-20T05:40:21;9.40;;;1.70;;
83814;SDS011;73829;53.826;-3.034;2023-12-20T05:45:22;9.10;;;1.40;;
83814;SDS011;73829;53.826;-3.034;2023-12-20T05:50:22;6.10;;;1.10;;
83814;SDS011;73829;53.826;-3.034;2023-12-20T05:52:53;9.80;;;2.20;;
83814;SDS011;73829;53.826;-3.034;2023-12-20T05:57:53;7.10;;;1.70;;
83814;SDS011;73829;53.826;-3.034;2023-12-20T06:02:53;7.00;;;1.20;;
83814;SDS011;73829;53.826;-3.034;2023-12-20T06:07:53;7.70;;;1.50;;
83814;SDS011;73829;53.826;-3.034;2023-12-20T06:10:25;8.00;;;1.40;;
83814;SDS011;73829;53.826;-3.034;2023-12-20T06:12:56;10.60;;;1.30;;
83814;SDS011;73829;53.826;-3.034;2023-12-20T06:15:28;9.70;;;1.40;;
83814;SDS011;73829;53.826;-3.034;2023-12-20T06:20:28;7.80;;;2.00;;
83814;SDS011;73829;53.826;-3.034;2023-12-20T06:22:59;8.60;;;1.50;;
83814;SDS011;73829;53.826;-3.034;2023-12-20T06:25:30;7.70;;;1.40;;
83814;SDS011;73829;53.826;-3.034;2023-12-20T06:28:02;5.90;;;1.30;;
83814;SDS011;73829;53.826;-3.034;2023-12-20T06:30:34;6.20;;;1.30;;
83814;SDS011;73829;53.826;-3.034;2023-12-20T06:33:05;8.30;;;1.50;;
83814;SDS011;73829;53.826;-3.034;2023-12-20T06:35:37;6.50;;;1.70;;
83814;SDS011;73829;53.826;-3.034;2023-12-20T06:38:08;7.30;;;1.70;;
83814;SDS011;73829;53.826;-3.034;2023-12-20T06:40:39;5.00;;;1.30;;
83814;SDS011;73829;53.826;-3.034;2023-12-20T06:43:10;8.00;;;1.30;;
83814;SDS011;73829;53.826;-3.034;2023-12-20T06:45:42;7.10;;;1.40;;
83814;SDS011;73829;53.826;-3.034;2023-12-20T06:50:42;8.70;;;1.70;;
83814;SDS011;73829;53.826;-3.034;2023-12-20T06:53:13;7.90;;;1.00;;
83814;SDS011;73829;53.826;-3.034;2023-12-20T06:55:44;6.20;;;1.80;;
83814;SDS011;73829;53.826;-3.034;2023-12-20T07:00:44;7.40;;;1.60;;
83814;SDS011;73829;53.826;-3.034;2023-12-20T07:03:15;8.90;;;1.50;;
83814;SDS011;73829;53.826;-3.034;2023-12-20T07:05:46;8.40;;;1.30;;
83814;SDS011;73829;53.826;-3.034;2023-12-20T07:08:18;6.20;;;1.60;;
83814;SDS011;73829;53.826;-3.034;2023-12-20T07:13:18;6.90;;;1.80;;
83814;SDS011;73829;53.826;-3.034;2023-12-20T07:15:49;7.70;;;1.40;;
83814;SDS011;73829;53.826;-3.034;2023-12-20T07:20:50;7.40;;;1.60;;
83814;SDS011;73829;53.826;-3.034;2023-12-20T07:23:22;8.90;;;1.50;;
83814;SDS011;73829;53.826;-3.034;2023-12-20T07:25:54;7.80;;;1.50;;
83814;SDS011;73829;53.826;-3.034;2023-12-20T07:28:25;5.40;;;1.40;;
83814;SDS011;73829;53.826;-3.034;2023-12-20T07:33:25;6.00;;;1.30;;
83814;SDS011;73829;53.826;-3.034;2023-12-20T07:38:25;5.50;;;1.10;;
83814;SDS011;73829;53.826;-3.034;2023-12-20T07:40:56;8.00;;;1.20;;
83814;SDS011;73829;53.826;-3.034;2023-12-20T07:43:27;5.90;;;1.20;;
83814;SDS011;73829;53.826;-3.034;2023-12-20T07:48:32;9.40;;;2.80;;
83814;SDS011;73829;53.826;-3.034;2023-12-20T07:51:04;9.00;;;1.50;;
83814;SDS011;73829;53.826;-3.034;2023-12-20T07:53:37;9.20;;;1.90;;
83814;SDS011;73829;53.826;-3.034;2023-12-20T07:58:47;8.30;;;1.90;;
83814;SDS011;73829;53.826;-3.034;2023-12-20T08:01:18;11.00;;;2.40;;
83814;SDS011;73829;53.826;-3.034;2023-12-20T08:03:49;10.40;;;3.10;;
83814;SDS011;73829;53.826;-3.034;2023-12-20T08:06:21;13.10;;;2.70;;
83814;SDS011;73829;53.826;-3.034;2023-12-20T08:08:52;10.50;;;2.70;;
83814;SDS011;73829;53.826;-3.034;2023-12-20T08:13:52;11.10;;;4.40;;
83814;SDS011;73829;53.826;-3.034;2023-12-20T08:16:23;15.60;;;3.40;;
83814;SDS011;73829;53.826;-3.034;2023-12-20T08:21:23;11.80;;;3.00;;
83814;SDS011;73829;53.826;-3.034;2023-12-20T08:23:54;12.10;;;3.20;;
83814;SDS011;73829;53.826;-3.034;2023-12-20T08:28:54;15.60;;;3.80;;
83814;SDS011;73829;53.826;-3.034;2023-12-20T08:31:25;15.10;;;3.80;;
83814;SDS011;73829;53.826;-3.034;2023-12-20T08:33:56;15.80;;;4.70;;
83814;SDS011;73829;53.826;-3.034;2023-12-20T08:38:57;17.20;;;4.00;;
83814;SDS011;73829;53.826;-3.034;2023-12-20T08:41:28;16.10;;;5.70;;
83814;SDS011;73829;53.826;-3.034;2023-12-20T08:43:59;14.50;;;4.30;;
83814;SDS011;73829;53.826;-3.034;2023-12-20T08:46:31;17.50;;;4.60;;
83814;SDS011;73829;53.826;-3.034;2023-12-20T08:49:02;13.60;;;4.70;;
83814;SDS011;73829;53.826;-3.034;2023-12-20T08:54:02;16.10;;;4.60;;
83814;SDS011;73829;53.826;-3.034;2023-12-20T08:56:35;16.30;;;5.10;;
83814;SDS011;73829;53.826;-3.034;2023-12-20T08:59:06;15.70;;;4.40;;
83814;SDS011;73829;53.826;-3.034;2023-12-20T09:01:38;13.40;;;4.70;;
83814;SDS011;73829;53.826;-3.034;2023-12-20T09:06:38;12.50;;;4.70;;
83814;SDS011;73829;53.826;-3.034;2023-12-20T09:09:09;13.90;;;4.90;;
83814;SDS011;73829;53.826;-3.034;2023-12-20T09:11:41;13.50;;;4.90;;
83814;SDS011;73829;53.826;-3.034;2023-12-20T09:14:13;16.80;;;4.90;;
83814;SDS011;73829;53.826;-3.034;2023-12-20T09:16:44;13.10;;;4.40;;
83814;SDS011;73829;53.826;-3.034;2023-12-20T09:19:15;14.60;;;4.90;;
83814;SDS011;73829;53.826;-3.034;2023-12-20T09:21:46;16.40;;;5.60;;
83814;SDS011;73829;53.826;-3.034;2023-12-20T09:26:46;13.50;;;4.30;;
83814;SDS011;73829;53.826;-3.034;2023-12-20T09:31:47;12.80;;;4.50;;
83814;SDS011;73829;53.826;-3.034;2023-12-20T09:36:47;12.70;;;4.10;;
83814;SDS011;73829;53.826;-3.034;2023-12-20T09:41:49;12.60;;;4.50;;
83814;SDS011;73829;53.826;-3.034;2023-12-20T09:44:29;14.50;;;5.00;;
83814;SDS011;73829;53.826;-3.034;2023-12-20T09:47:03;15.10;;;5.20;;
83814;SDS011;73829;53.826;-3.034;2023-12-20T09:49:35;17.20;;;5.20;;
83814;SDS011;73829;53.826;-3.034;2023-12-20T09:52:07;14.00;;;4.90;;
83814;SDS011;73829;53.826;-3.034;2023-12-20T09:54:39;17.10;;;4.80;;
83814;SDS011;73829;53.826;-3.034;2023-12-20T09:57:10;16.10;;;4.70;;
83814;SDS011;73829;53.826;-3.034;2023-12-20T10:02:12;13.50;;;5.10;;
83814;SDS011;73829;53.826;-3.034;2023-12-20T10:04:47;14.40;;;5.10;;
83814;SDS011;73829;53.826;-3.034;2023-12-20T10:07:18;15.00;;;5.30;;
83814;SDS011;73829;53.826;-3.034;2023-12-20T10:09:49;14.20;;;4.60;;
83814;SDS011;73829;53.826;-3.034;2023-12-20T10:12:23;13.80;;;5.00;;
83814;SDS011;73829;53.826;-3.034;2023-12-20T10:14:54;16.20;;;5.10;;
83814;SDS011;73829;53.826;-3.034;2023-12-20T10:17:26;14.60;;;4.80;;
83814;SDS011;73829;53.826;-3.034;2023-12-20T10:19:58;14.80;;;4.90;;
83814;SDS011;73829;53.826;-3.034;2023-12-20T10:22:29;15.40;;;4.70;;
83814;SDS011;73829;53.826;-3.034;2023-12-20T10:25:00;16.20;;;5.40;;
83814;SDS011;73829;53.826;-3.034;2023-12-20T10:27:32;16.10;;;6.00;;
83814;SDS011;73829;53.826;-3.034;2023-12-20T10:32:32;12.60;;;4.60;;
83814;SDS011;73829;53.826;-3.034;2023-12-20T10:35:05;15.10;;;5.10;;
83814;SDS011;73829;53.826;-3.034;2023-12-20T10:37:37;15.60;;;4.70;;
83814;SDS011;73829;53.826;-3.034;2023-12-20T10:40:09;18.00;;;5.60;;
83814;SDS011;73829;53.826;-3.034;2023-12-20T10:42:41;15.40;;;5.20;;
83814;SDS011;73829;53.826;-3.034;2023-12-20T10:45:13;17.30;;;5.90;;
83814;SDS011;73829;53.826;-3.034;2023-12-20T10:47:45;17.10;;;6.30;;
83814;SDS011;73829;53.826;-3.034;2023-12-20T10:50:18;15.60;;;5.40;;
83814;SDS011;73829;53.826;-3.034;2023-12-20T10:52:50;16.50;;;5.40;;
83814;SDS011;73829;53.826;-3.034;2023-12-20T10:55:23;18.90;;;5.80;;
83814;SDS011;73829;53.826;-3.034;2023-12-20T10:57:57;17.60;;;5.80;;
83814;SDS011;73829;53.826;-3.034;2023-12-20T11:00:33;16.40;;;5.10;;
83814;SDS011;73829;53.826;-3.034;2023-12-20T11:03:09;14.80;;;4.70;;
83814;SDS011;73829;53.826;-3.034;2023-12-20T11:05:42;22.40;;;6.00;;
83814;SDS011;73829;53.826;-3.034;2023-12-20T11:08:19;19.30;;;5.50;;
83814;SDS011;73829;53.826;-3.034;2023-12-20T11:10:58;17.80;;;5.10;;
83814;SDS011;73829;53.826;-3.034;2023-12-20T11:13:43;13.70;;;5.00;;
83814;SDS011;73829;53.826;-3.034;2023-12-20T11:16:22;15.00;;;5.00;;
83814;SDS011;73829;53.826;-3.034;2023-12-20T11:18:54;17.00;;;4.80;;
83814;SDS011;73829;53.826;-3.034;2023-12-20T11:21:24;16.00;;;5.10;;
83814;SDS011;73829;53.826;-3.034;2023-12-20T11:23:58;16.90;;;5.40;;
83814;SDS011;73829;53.826;-3.034;2023-12-20T11:26:30;17.70;;;5.20;;
83814;SDS011;73829;53.826;-3.034;2023-12-20T11:32:18;18.10;;;4.80;;
83814;SDS011;73829;53.826;-3.034;2023-12-20T11:34:59;16.40;;;4.50;;
83814;SDS011;73829;53.826;-3.034;2023-12-20T11:37:45;17.80;;;4.70;;
83814;SDS011;73829;53.826;-3.034;2023-12-20T11:40:17;16.90;;;5.30;;
83814;SDS011;73829;53.826;-3.034;2023-12-20T11:42:50;16.20;;;4.90;;
83814;SDS011;73829;53.826;-3.034;2023-12-20T11:45:23;13.70;;;4.70;;
83814;SDS011;73829;53.826;-3.034;2023-12-20T11:47:55;15.20;;;4.30;;
83814;SDS011;73829;53.826;-3.034;2023-12-20T11:50:27;14.00;;;4.00;;
83814;SDS011;73829;53.826;-3.034;2023-12-20T11:52:59;17.30;;;3.90;;
83814;SDS011;73829;53.826;-3.034;2023-12-20T11:55:30;15.50;;;4.30;;
83814;SDS011;73829;53.826;-3.034;2023-12-20T11:58:04;10.10;;;3.80;;
83814;SDS011;73829;53.826;-3.034;2023-12-20T12:00:37;14.60;;;4.60;;
83814;SDS011;73829;53.826;-3.034;2023-12-20T12:03:08;16.50;;;4.30;;
83814;SDS011;73829;53.826;-3.034;2023-12-20T12:05:43;12.80;;;4.20;;
83814;SDS011;73829;53.826;-3.034;2023-12-20T12:12:18;11.70;;;3.40;;
83814;SDS011;73829;53.826;-3.034;2023-12-20T12:14:49;11.30;;;3.30;;
83814;SDS011;73829;53.826;-3.034;2023-12-20T12:17:21;13.00;;;4.00;;
83814;SDS011;73829;53.826;-3.034;2023-12-20T12:19:53;13.30;;;3.90;;
83814;SDS011;73829;53.826;-3.034;2023-12-20T12:22:33;12.30;;;3.50;;
83814;SDS011;73829;53.826;-3.034;2023-12-20T12:27:41;12.90;;;3.10;;
83814;SDS011;73829;53.826;-3.034;2023-12-20T12:30:12;11.60;;;3.30;;
83814;SDS011;73829;53.826;-3.034;2023-12-20T12:32:46;11.50;;;3.10;;
83814;SDS011;73829;53.826;-3.034;2023-12-20T12:35:17;13.90;;;3.20;;
83814;SDS011;73829;53.826;-3.034;2023-12-20T12:37:48;13.10;;;3.40;;
83814;SDS011;73829;53.826;-3.034;2023-12-20T12:40:20;10.10;;;3.50;;
83814;SDS011;73829;53.826;-3.034;2023-12-20T12:42:51;11.10;;;2.50;;
83814;SDS011;73829;53.826;-3.034;2023-12-20T12:47:52;10.10;;;2.60;;
83814;SDS011;73829;53.826;-3.034;2023-12-20T12:50:23;10.80;;;3.10;;
83814;SDS011;73829;53.826;-3.034;2023-12-20T12:52:56;14.30;;;2.80;;
83814;SDS011;73829;53.826;-3.034;2023-12-20T12:57:56;14.50;;;3.10;;
83814;SDS011;73829;53.826;-3.034;2023-12-20T13:00:27;10.00;;;3.10;;
83814;SDS011;73829;53.826;-3.034;2023-12-20T13:05:27;12.30;;;2.60;;
83814;SDS011;73829;53.826;-3.034;2023-12-20T13:07:59;13.00;;;2.90;;
83814;SDS011;73829;53.826;-3.034;2023-12-20T13:10:30;10.90;;;2.60;;
83814;SDS011;73829;53.826;-3.034;2023-12-20T13:13:01;9.70;;;2.30;;
83814;SDS011;73829;53.826;-3.034;2023-12-20T13:15:32;10.20;;;3.20;;
83814;SDS011;73829;53.826;-3.034;2023-12-20T13:18:03;10.50;;;2.70;;
83814;SDS011;73829;53.826;-3.034;2023-12-20T13:20:35;13.30;;;3.40;;
83814;SDS011;73829;53.826;-3.034;2023-12-20T13:23:07;9.20;;;3.00;;
83814;SDS011;73829;53.826;-3.034;2023-12-20T13:25:38;9.50;;;2.40;;
83814;SDS011;73829;53.826;-3.034;2023-12-20T13:28:10;12.20;;;2.60;;
83814;SDS011;73829;53.826;-3.034;2023-12-20T13:30:41;11.20;;;2.50;;
83814;SDS011;73829;53.826;-3.034;2023-12-20T13:33:12;11.40;;;2.30;;
83814;SDS011;73829;53.826;-3.034;2023-12-20T13:35:43;9.40;;;2.60;;
83814;SDS011;73829;53.826;-3.034;2023-12-20T13:40:43;6.90;;;2.10;;
83814;SDS011;73829;53.826;-3.034;2023-12-20T13:43:14;8.60;;;2.50;;
83814;SDS011;73829;53.826;-3.034;2023-12-20T13:45:48;8.10;;;1.80;;
83814;SDS011;73829;53.826;-3.034;2023-12-20T13:48:19;10.50;;;2.10;;
83814;SDS011;73829;53.826;-3.034;2023-12-20T13:50:50;8.20;;;2.20;;
83814;SDS011;73829;53.826;-3.034;2023-12-20T13:53:22;9.40;;;2.10;;
83814;SDS011;73829;53.826;-3.034;2023-12-20T13:58:22;8.40;;;2.10;;
83814;SDS011;73829;53.826;-3.034;2023-12-20T14:00:53;9.50;;;2.40;;
83814;SDS011;73829;53.826;-3.034;2023-12-20T14:05:53;9.40;;;2.20;;
83814;SDS011;73829;53.826;-3.034;2023-12-20T14:08:24;7.90;;;2.30;;
83814;SDS011;73829;53.826;-3.034;2023-12-20T14:10:55;9.10;;;1.90;;
83814;SDS011;73829;53.826;-3.034;2023-12-20T14:13:26;10.50;;;2.10;;
83814;SDS011;73829;53.826;-3.034;2023-12-20T14:15:58;13.70;;;2.20;;
83814;SDS011;73829;53.826;-3.034;2023-12-20T14:18:29;9.40;;;2.30;;
83814;SDS011;73829;53.826;-3.034;2023-12-20T14:21:00;6.70;;;1.90;;
83814;SDS011;73829;53.826;-3.034;2023-12-20T14:23:33;6.90;;;1.80;;
83814;SDS011;73829;53.826;-3.034;2023-12-20T14:26:04;9.60;;;2.10;;
83814;SDS011;73829;53.826;-3.034;2023-12-20T14:28:35;10.60;;;2.40;;
83814;SDS011;73829;53.826;-3.034;2023-12-20T14:31:07;11.40;;;2.30;;
83814;SDS011;73829;53.826;-3.034;2023-12-20T14:33:39;10.40;;;2.30;;
83814;SDS011;73829;53.826;-3.034;2023-12-20T14:36:11;11.80;;;2.00;;
83814;SDS011;73829;53.826;-3.034;2023-12-20T14:38:42;8.90;;;2.00;;
83814;SDS011;73829;53.826;-3.034;2023-12-20T14:41:13;11.40;;;2.20;;
83814;SDS011;73829;53.826;-3.034;2023-12-20T14:43:45;10.40;;;2.40;;
83814;SDS011;73829;53.826;-3.034;2023-12-20T14:46:16;9.50;;;1.90;;
83814;SDS011;73829;53.826;-3.034;2023-12-20T14:48:47;9.90;;;2.00;;
83814;SDS011;73829;53.826;-3.034;2023-12-20T14:51:18;11.00;;;2.10;;
83814;SDS011;73829;53.826;-3.034;2023-12-20T14:53:49;9.50;;;2.00;;
83814;SDS011;73829;53.826;-3.034;2023-12-20T14:56:20;9.00;;;1.70;;
83814;SDS011;73829;53.826;-3.034;2023-12-20T14:58:52;7.60;;;1.90;;
83814;SDS011;73829;53.826;-3.034;2023-12-20T15:01:23;10.20;;;2.10;;
83814;SDS011;73829;53.826;-3.034;2023-12-20T15:03:54;7.70;;;1.80;;
83814;SDS011;73829;53.826;-3.034;2023-12-20T15:06:25;13.60;;;2.10;;
83814;SDS011;73829;53.826;-3.034;2023-12-20T15:08:56;10.30;;;2.10;;
83814;SDS011;73829;53.826;-3.034;2023-12-20T15:11:27;9.70;;;2.20;;
83814;SDS011;73829;53.826;-3.034;2023-12-20T15:13:58;9.00;;;1.70;;
83814;SDS011;73829;53.826;-3.034;2023-12-20T15:16:29;8.60;;;2.40;;
83814;SDS011;73829;53.826;-3.034;2023-12-20T15:19:00;10.10;;;2.20;;
83814;SDS011;73829;53.826;-3.034;2023-12-20T15:21:32;11.10;;;2.00;;
83814;SDS011;73829;53.826;-3.034;2023-12-20T15:24:08;9.40;;;1.90;;
83814;SDS011;73829;53.826;-3.034;2023-12-20T15:26:43;8.70;;;1.80;;
83814;SDS011;73829;53.826;-3.034;2023-12-20T15:29:15;11.60;;;1.90;;
83814;SDS011;73829;53.826;-3.034;2023-12-20T15:31:46;7.60;;;1.90;;
83814;SDS011;73829;53.826;-3.034;2023-12-20T15:34:17;8.60;;;1.70;;
83814;SDS011;73829;53.826;-3.034;2023-12-20T15:36:48;8.20;;;1.50;;
83814;SDS011;73829;53.826;-3.034;2023-12-20T15:39:19;8.20;;;1.70;;
83814;SDS011;73829;53.826;-3.034;2023-12-20T15:41:51;9.00;;;1.70;;
83814;SDS011;73829;53.826;-3.034;2023-12-20T15:44:22;8.20;;;1.60;;
83814;SDS011;73829;53.826;-3.034;2023-12-20T15:46:52;10.20;;;1.70;;
83814;SDS011;73829;53.826;-3.034;2023-12-20T15:51:53;8.70;;;1.90;;
83814;SDS011;73829;53.826;-3.034;2023-12-20T15:54:23;12.90;;;2.30;;
83814;SDS011;73829;53.826;-3.034;2023-12-20T15:56:54;10.20;;;1.90;;
83814;SDS011;73829;53.826;-3.034;2023-12-20T15:59:25;10.90;;;2.00;;
83814;SDS011;73829;53.826;-3.034;2023-12-20T16:01:56;13.80;;;2.30;;
83814;SDS011;73829;53.826;-3.034;2023-12-20T16:04:27;11.80;;;2.20;;
83814;SDS011;73829;53.826;-3.034;2023-12-20T16:06:58;9.20;;;2.10;;
83814;SDS011;73829;53.826;-3.034;2023-12-20T16:09:29;11.70;;;1.90;;
83814;SDS011;73829;53.826;-3.034;2023-12-20T16:12:00;10.40;;;1.90;;
83814;SDS011;73829;53.826;-3.034;2023-12-20T16:14:31;8.80;;;1.90;;
83814;SDS011;73829;53.826;-3.034;2023-12-20T16:17:02;10.50;;;1.80;;
83814;SDS011;73829;53.826;-3.034;2023-12-20T16:19:34;9.70;;;1.40;;
83814;SDS011;73829;53.826;-3.034;2023-12-20T16:22:06;8.00;;;1.70;;
83814;SDS011;73829;53.826;-3.034;2023-12-20T16:24:37;8.20;;;2.00;;
83814;SDS011;73829;53.826;-3.034;2023-12-20T16:27:09;9.80;;;2.00;;
83814;SDS011;73829;53.826;-3.034;2023-12-20T16:29:41;7.00;;;1.70;;
83814;SDS011;73829;53.826;-3.034;2023-12-20T16:32:12;9.20;;;1.70;;
83814;SDS011;73829;53.826;-3.034;2023-12-20T16:34:44;8.40;;;1.60;;
83814;SDS011;73829;53.826;-3.034;2023-12-20T16:37:16;7.90;;;1.60;;
83814;SDS011;73829;53.826;-3.034;2023-12-20T16:39:47;11.10;;;1.90;;
83814;SDS011;73829;53.826;-3.034;2023-12-20T16:42:19;11.90;;;2.40;;
83814;SDS011;73829;53.826;-3.034;2023-12-20T16:44:50;7.40;;;2.00;;
83814;SDS011;73829;53.826;-3.034;2023-12-20T16:47:21;8.10;;;1.40;;
83814;SDS011;73829;53.826;-3.034;2023-12-20T16:49:53;11.40;;;1.80;;
83814;SDS011;73829;53.826;-3.034;2023-12-20T16:52:26;11.00;;;1.70;;
83814;SDS011;73829;53.826;-3.034;2023-12-20T16:54:57;10.00;;;1.50;;
83814;SDS011;73829;53.826;-3.034;2023-12-20T16:57:29;8.30;;;1.60;;
83814;SDS011;73829;53.826;-3.034;2023-12-20T17:00:00;6.80;;;1.50;;
83814;SDS011;73829;53.826;-3.034;2023-12-20T17:02:32;8.10;;;1.80;;
83814;SDS011;73829;53.826;-3.034;2023-12-20T17:05:04;7.30;;;1.40;;
83814;SDS011;73829;53.826;-3.034;2023-12-20T17:07:37;10.50;;;1.80;;